sensor_id;sensor_type;location;lat;lon;timestamp;temperature;humidity
18888;DHT22;9576;47.792;9.628;2022-10-03T00:01:15;12.90;99.90
18888;DHT22;9576;47.792;9.628;2022-10-03T00:04:31;12.80;99.90
18888;DHT22;9576;47.792;9.628;2022-10-03T00:08:07;12.80;99.90
18888;DHT22;9576;47.792;9.628;2022-10-03T00:11:26;12.90;99.90
18888;DHT22;9576;47.792;9.628;2022-10-03T00:14:40;12.90;99.90
18888;DHT22;9576;47.792;9.628;2022-10-03T00:17:53;12.80;99.90
18888;DHT22;9576;47.792;9.628;2022-10-03T00:21:06;12.80;99.90
18888;DHT22;9576;47.792;9.628;2022-10-03T00:24:22;12.70;99.90
18888;DHT22;9576;47.792;9.628;2022-10-03T00:27:31;12.70;99.90
18888;DHT22;9576;47.792;9.628;2022-10-03T00:30:48;12.60;99.90
18888;DHT22;9576;47.792;9.628;2022-10-03T00:34:02;12.70;99.90
18888;DHT22;9576;47.792;9.628;2022-10-03T00:37:20;12.60;99.90
18888;DHT22;9576;47.792;9.628;2022-10-03T00:48:05;12.60;99.90
18888;DHT22;9576;47.792;9.628;2022-10-03T00:51:24;12.50;99.90
18888;DHT22;9576;47.792;9.628;2022-10-03T00:54:42;12.60;99.90
18888;DHT22;9576;47.792;9.628;2022-10-03T00:57:58;12.60;99.90
18888;DHT22;9576;47.792;9.628;2022-10-03T01:01:19;12.50;99.90
18888;DHT22;9576;47.792;9.628;2022-10-03T01:04:43;12.50;99.90
18888;DHT22;9576;47.792;9.628;2022-10-03T01:08:26;12.50;99.90
18888;DHT22;9576;47.792;9.628;2022-10-03T01:11:43;12.40;99.90
18888;DHT22;9576;47.792;9.628;2022-10-03T01:15:13;12.40;99.90
18888;DHT22;9576;47.792;9.628;2022-10-03T01:18:25;12.40;99.90
18888;DHT22;9576;47.792;9.628;2022-10-03T01:21:37;12.20;99.90
18888;DHT22;9576;47.792;9.628;2022-10-03T01:24:51;12.20;99.90
18888;DHT22;9576;47.792;9.628;2022-10-03T01:27:59;12.20;99.90
18888;DHT22;9576;47.792;9.628;2022-10-03T01:31:28;12.00;99.90
18888;DHT22;9576;47.792;9.628;2022-10-03T01:34:43;12.00;99.90
18888;DHT22;9576;47.792;9.628;2022-10-03T01:37:54;12.00;99.90
18888;DHT22;9576;47.792;9.628;2022-10-03T01:41:00;11.90;99.90
18888;DHT22;9576;47.792;9.628;2022-10-03T01:44:12;11.90;99.90
18888;DHT22;9576;47.792;9.628;2022-10-03T01:47:23;11.80;99.90
18888;DHT22;9576;47.792;9.628;2022-10-03T01:50:31;11.70;99.90
18888;DHT22;9576;47.792;9.628;2022-10-03T01:53:44;11.70;99.90
18888;DHT22;9576;47.792;9.628;2022-10-03T01:56:54;11.70;99.90
18888;DHT22;9576;47.792;9.628;2022-10-03T02:00:03;11.70;99.90
18888;DHT22;9576;47.792;9.628;2022-10-03T02:03:12;11.70;99.90
18888;DHT22;9576;47.792;9.628;2022-10-03T02:06:20;11.70;99.90
18888;DHT22;9576;47.792;9.628;2022-10-03T02:09:29;11.60;99.90
18888;DHT22;9576;47.792;9.628;2022-10-03T02:12:38;11.60;99.90
18888;DHT22;9576;47.792;9.628;2022-10-03T02:15:50;11.50;99.90
18888;DHT22;9576;47.792;9.628;2022-10-03T02:19:00;11.40;99.90
18888;DHT22;9576;47.792;9.628;2022-10-03T02:22:13;11.30;99.90
18888;DHT22;9576;47.792;9.628;2022-10-03T02:25:23;11.30;99.90
18888;DHT22;9576;47.792;9.628;2022-10-03T02:28:41;11.30;99.90
18888;DHT22;9576;47.792;9.628;2022-10-03T02:32:09;11.40;99.90
18888;DHT22;9576;47.792;9.628;2022-10-03T02:43:24;11.50;99.90
18888;DHT22;9576;47.792;9.628;2022-10-03T03:01:46;11.40;99.90
18888;DHT22;9576;47.792;9.628;2022-10-03T03:05:21;11.40;99.90
18888;DHT22;9576;47.792;9.628;2022-10-03T03:08:55;11.40;99.90
18888;DHT22;9576;47.792;9.628;2022-10-03T03:16:15;11.40;99.90
18888;DHT22;9576;47.792;9.628;2022-10-03T03:19:40;11.40;99.90
18888;DHT22;9576;47.792;9.628;2022-10-03T03:22:58;11.40;99.90
18888;DHT22;9576;47.792;9.628;2022-10-03T03:26:26;11.40;99.90
18888;DHT22;9576;47.792;9.628;2022-10-03T03:29:40;11.50;99.90
18888;DHT22;9576;47.792;9.628;2022-10-03T03:32:56;11.50;99.90
18888;DHT22;9576;47.792;9.628;2022-10-03T03:36:07;11.40;99.90
18888;DHT22;9576;47.792;9.628;2022-10-03T03:39:22;11.40;99.90
18888;DHT22;9576;47.792;9.628;2022-10-03T03:42:41;11.50;99.90
18888;DHT22;9576;47.792;9.628;2022-10-03T03:45:55;11.50;99.90
18888;DHT22;9576;47.792;9.628;2022-10-03T03:49:13;11.50;99.90
18888;DHT22;9576;47.792;9.628;2022-10-03T03:52:34;11.40;99.90
18888;DHT22;9576;47.792;9.628;2022-10-03T03:55:57;11.40;99.90
18888;DHT22;9576;47.792;9.628;2022-10-03T03:59:14;11.40;99.90
18888;DHT22;9576;47.792;9.628;2022-10-03T04:02:31;11.50;99.90
18888;DHT22;9576;47.792;9.628;2022-10-03T04:05:50;11.40;99.90
18888;DHT22;9576;47.792;9.628;2022-10-03T04:09:19;11.50;99.90
18888;DHT22;9576;47.792;9.628;2022-10-03T04:16:20;11.50;99.90
18888;DHT22;9576;47.792;9.628;2022-10-03T04:19:50;11.50;99.90
18888;DHT22;9576;47.792;9.628;2022-10-03T04:23:11;11.50;99.90
18888;DHT22;9576;47.792;9.628;2022-10-03T04:26:27;11.50;99.90
18888;DHT22;9576;47.792;9.628;2022-10-03T04:29:52;11.50;99.90
18888;DHT22;9576;47.792;9.628;2022-10-03T04:33:12;11.50;99.90
18888;DHT22;9576;47.792;9.628;2022-10-03T04:40:15;11.50;99.90
18888;DHT22;9576;47.792;9.628;2022-10-03T04:43:28;11.50;99.90
18888;DHT22;9576;47.792;9.628;2022-10-03T04:46:41;11.50;99.90
18888;DHT22;9576;47.792;9.628;2022-10-03T04:49:49;11.40;99.90
18888;DHT22;9576;47.792;9.628;2022-10-03T04:53:06;11.40;99.90
18888;DHT22;9576;47.792;9.628;2022-10-03T04:56:29;11.40;99.90
18888;DHT22;9576;47.792;9.628;2022-10-03T04:59:39;11.40;99.90
18888;DHT22;9576;47.792;9.628;2022-10-03T05:02:48;11.40;99.90
18888;DHT22;9576;47.792;9.628;2022-10-03T05:05:56;11.40;99.90
18888;DHT22;9576;47.792;9.628;2022-10-03T05:09:11;11.30;99.90
18888;DHT22;9576;47.792;9.628;2022-10-03T05:12:27;11.30;99.90
18888;DHT22;9576;47.792;9.628;2022-10-03T05:15:32;11.30;99.90
18888;DHT22;9576;47.792;9.628;2022-10-03T05:18:40;11.10;99.90
18888;DHT22;9576;47.792;9.628;2022-10-03T05:21:49;11.10;99.90
18888;DHT22;9576;47.792;9.628;2022-10-03T05:25:00;11.20;99.90
18888;DHT22;9576;47.792;9.628;2022-10-03T05:28:14;11.10;99.90
18888;DHT22;9576;47.792;9.628;2022-10-03T05:31:28;11.10;99.90
18888;DHT22;9576;47.792;9.628;2022-10-03T05:34:37;11.10;99.90
18888;DHT22;9576;47.792;9.628;2022-10-03T05:38:02;11.10;99.90
18888;DHT22;9576;47.792;9.628;2022-10-03T05:41:17;11.00;99.90
18888;DHT22;9576;47.792;9.628;2022-10-03T05:44:32;10.90;99.90
18888;DHT22;9576;47.792;9.628;2022-10-03T05:47:47;10.80;99.90
18888;DHT22;9576;47.792;9.628;2022-10-03T05:51:12;10.80;99.90
18888;DHT22;9576;47.792;9.628;2022-10-03T05:54:33;10.70;99.90
18888;DHT22;9576;47.792;9.628;2022-10-03T05:58:15;10.80;99.90
18888;DHT22;9576;47.792;9.628;2022-10-03T06:01:39;10.80;99.90
18888;DHT22;9576;47.792;9.628;2022-10-03T06:05:15;10.80;99.90
18888;DHT22;9576;47.792;9.628;2022-10-03T06:08:45;10.80;99.90
18888;DHT22;9576;47.792;9.628;2022-10-03T06:12:04;10.90;99.90
18888;DHT22;9576;47.792;9.628;2022-10-03T06:15:38;11.00;99.90
18888;DHT22;9576;47.792;9.628;2022-10-03T06:19:06;11.00;99.90
18888;DHT22;9576;47.792;9.628;2022-10-03T06:26:22;10.80;99.90
18888;DHT22;9576;47.792;9.628;2022-10-03T06:29:51;10.80;99.90
18888;DHT22;9576;47.792;9.628;2022-10-03T06:37:23;10.70;99.90
18888;DHT22;9576;47.792;9.628;2022-10-03T06:41:11;10.70;99.90
18888;DHT22;9576;47.792;9.628;2022-10-03T06:44:28;10.70;99.90
18888;DHT22;9576;47.792;9.628;2022-10-03T06:47:50;10.70;99.90
18888;DHT22;9576;47.792;9.628;2022-10-03T06:51:21;10.70;99.90
18888;DHT22;9576;47.792;9.628;2022-10-03T06:58:35;10.60;99.90
18888;DHT22;9576;47.792;9.628;2022-10-03T07:02:19;10.60;99.90
18888;DHT22;9576;47.792;9.628;2022-10-03T07:06:09;10.60;99.90
18888;DHT22;9576;47.792;9.628;2022-10-03T07:13:21;10.80;99.90
18888;DHT22;9576;47.792;9.628;2022-10-03T07:17:15;10.70;99.90
18888;DHT22;9576;47.792;9.628;2022-10-03T07:24:09;10.80;99.90
18888;DHT22;9576;47.792;9.628;2022-10-03T07:27:27;10.90;99.90
18888;DHT22;9576;47.792;9.628;2022-10-03T07:30:49;10.80;99.90
18888;DHT22;9576;47.792;9.628;2022-10-03T07:45:38;10.80;99.90
18888;DHT22;9576;47.792;9.628;2022-10-03T07:48:56;10.80;99.90
18888;DHT22;9576;47.792;9.628;2022-10-03T07:52:28;10.80;99.90
18888;DHT22;9576;47.792;9.628;2022-10-03T07:55:54;10.80;99.90
18888;DHT22;9576;47.792;9.628;2022-10-03T07:59:18;10.80;99.90
18888;DHT22;9576;47.792;9.628;2022-10-03T08:02:39;10.80;99.90
18888;DHT22;9576;47.792;9.628;2022-10-03T08:06:13;10.80;99.90
18888;DHT22;9576;47.792;9.628;2022-10-03T08:09:58;10.80;99.90
18888;DHT22;9576;47.792;9.628;2022-10-03T08:13:26;10.90;99.90
18888;DHT22;9576;47.792;9.628;2022-10-03T08:20:31;11.20;99.90
18888;DHT22;9576;47.792;9.628;2022-10-03T08:23:49;11.40;99.90
18888;DHT22;9576;47.792;9.628;2022-10-03T08:27:27;11.50;99.90
18888;DHT22;9576;47.792;9.628;2022-10-03T08:30:44;11.70;99.90
18888;DHT22;9576;47.792;9.628;2022-10-03T08:34:06;11.80;99.90
18888;DHT22;9576;47.792;9.628;2022-10-03T08:37:40;11.90;99.90
18888;DHT22;9576;47.792;9.628;2022-10-03T08:44:52;12.00;99.90
18888;DHT22;9576;47.792;9.628;2022-10-03T08:52:03;12.10;99.90
18888;DHT22;9576;47.792;9.628;2022-10-03T08:55:30;12.10;99.90
18888;DHT22;9576;47.792;9.628;2022-10-03T09:02:39;12.20;99.90
18888;DHT22;9576;47.792;9.628;2022-10-03T09:06:10;12.20;99.90
18888;DHT22;9576;47.792;9.628;2022-10-03T09:17:05;12.50;99.90
18888;DHT22;9576;47.792;9.628;2022-10-03T09:20:54;12.70;99.90
18888;DHT22;9576;47.792;9.628;2022-10-03T09:24:31;12.80;99.90
18888;DHT22;9576;47.792;9.628;2022-10-03T09:28:13;12.80;99.90
18888;DHT22;9576;47.792;9.628;2022-10-03T09:35:27;13.10;99.90
18888;DHT22;9576;47.792;9.628;2022-10-03T09:38:54;13.10;99.90
18888;DHT22;9576;47.792;9.628;2022-10-03T09:42:22;13.20;99.90
18888;DHT22;9576;47.792;9.628;2022-10-03T09:49:26;13.50;99.90
18888;DHT22;9576;47.792;9.628;2022-10-03T09:52:47;13.70;99.90
18888;DHT22;9576;47.792;9.628;2022-10-03T09:56:10;13.90;99.90
18888;DHT22;9576;47.792;9.628;2022-10-03T09:59:30;14.30;99.90
18888;DHT22;9576;47.792;9.628;2022-10-03T10:10:31;15.20;99.90
18888;DHT22;9576;47.792;9.628;2022-10-03T10:14:22;15.40;99.90
18888;DHT22;9576;47.792;9.628;2022-10-03T10:21:47;15.20;99.90
18888;DHT22;9576;47.792;9.628;2022-10-03T10:25:17;15.50;99.90
18888;DHT22;9576;47.792;9.628;2022-10-03T10:28:45;15.70;99.90
18888;DHT22;9576;47.792;9.628;2022-10-03T10:40:06;15.70;99.90
18888;DHT22;9576;47.792;9.628;2022-10-03T10:51:13;15.50;99.90
18888;DHT22;9576;47.792;9.628;2022-10-03T11:05:40;16.00;99.90
18888;DHT22;9576;47.792;9.628;2022-10-03T11:09:14;16.20;99.90
18888;DHT22;9576;47.792;9.628;2022-10-03T11:12:45;16.50;99.90
18888;DHT22;9576;47.792;9.628;2022-10-03T11:30:51;18.10;99.90
18888;DHT22;9576;47.792;9.628;2022-10-03T11:34:41;18.00;99.90
18888;DHT22;9576;47.792;9.628;2022-10-03T11:37:46;18.00;99.90
18888;DHT22;9576;47.792;9.628;2022-10-03T11:40:59;18.00;99.90
18888;DHT22;9576;47.792;9.628;2022-10-03T11:44:14;17.70;99.90
18888;DHT22;9576;47.792;9.628;2022-10-03T11:47:39;17.50;99.90
18888;DHT22;9576;47.792;9.628;2022-10-03T11:50:46;17.10;99.90
18888;DHT22;9576;47.792;9.628;2022-10-03T11:53:53;16.90;99.90
18888;DHT22;9576;47.792;9.628;2022-10-03T11:57:03;16.60;99.90
18888;DHT22;9576;47.792;9.628;2022-10-03T12:00:13;16.60;99.90
18888;DHT22;9576;47.792;9.628;2022-10-03T12:03:21;16.80;99.90
18888;DHT22;9576;47.792;9.628;2022-10-03T12:06:50;16.80;99.90
18888;DHT22;9576;47.792;9.628;2022-10-03T12:10:22;16.40;99.90
18888;DHT22;9576;47.792;9.628;2022-10-03T12:13:36;16.30;99.90
18888;DHT22;9576;47.792;9.628;2022-10-03T12:16:52;17.00;99.90
18888;DHT22;9576;47.792;9.628;2022-10-03T12:20:02;17.70;99.90
18888;DHT22;9576;47.792;9.628;2022-10-03T12:23:12;18.10;99.90
18888;DHT22;9576;47.792;9.628;2022-10-03T12:26:26;18.60;99.90
18888;DHT22;9576;47.792;9.628;2022-10-03T12:29:36;19.10;99.90
18888;DHT22;9576;47.792;9.628;2022-10-03T12:32:50;19.50;99.90
18888;DHT22;9576;47.792;9.628;2022-10-03T12:35:57;20.20;99.90
18888;DHT22;9576;47.792;9.628;2022-10-03T12:39:16;20.60;99.90
18888;DHT22;9576;47.792;9.628;2022-10-03T12:42:25;20.70;99.90
18888;DHT22;9576;47.792;9.628;2022-10-03T12:45:33;20.60;99.90
18888;DHT22;9576;47.792;9.628;2022-10-03T12:48:43;20.50;99.90
18888;DHT22;9576;47.792;9.628;2022-10-03T12:51:51;20.90;99.90
18888;DHT22;9576;47.792;9.628;2022-10-03T12:55:07;21.10;99.90
18888;DHT22;9576;47.792;9.628;2022-10-03T12:58:16;21.30;99.90
18888;DHT22;9576;47.792;9.628;2022-10-03T13:01:26;21.40;99.90
18888;DHT22;9576;47.792;9.628;2022-10-03T13:04:39;21.80;99.90
18888;DHT22;9576;47.792;9.628;2022-10-03T13:07:47;22.10;99.90
18888;DHT22;9576;47.792;9.628;2022-10-03T13:10:55;22.40;99.90
18888;DHT22;9576;47.792;9.628;2022-10-03T13:14:24;22.60;99.90
18888;DHT22;9576;47.792;9.628;2022-10-03T13:17:33;22.90;99.90
18888;DHT22;9576;47.792;9.628;2022-10-03T13:20:42;23.30;99.90
18888;DHT22;9576;47.792;9.628;2022-10-03T13:23:52;23.60;99.90
18888;DHT22;9576;47.792;9.628;2022-10-03T13:27:02;24.00;99.90
18888;DHT22;9576;47.792;9.628;2022-10-03T13:30:15;23.80;99.90
18888;DHT22;9576;47.792;9.628;2022-10-03T13:33:21;23.30;99.90
18888;DHT22;9576;47.792;9.628;2022-10-03T13:36:29;23.40;99.90
18888;DHT22;9576;47.792;9.628;2022-10-03T13:39:43;23.80;99.90
18888;DHT22;9576;47.792;9.628;2022-10-03T13:42:47;24.50;99.90
18888;DHT22;9576;47.792;9.628;2022-10-03T13:45:53;25.30;99.90
18888;DHT22;9576;47.792;9.628;2022-10-03T13:48:59;25.10;99.90
18888;DHT22;9576;47.792;9.628;2022-10-03T13:52:12;24.80;99.90
18888;DHT22;9576;47.792;9.628;2022-10-03T13:55:22;24.70;99.90
18888;DHT22;9576;47.792;9.628;2022-10-03T13:58:41;23.80;99.90
18888;DHT22;9576;47.792;9.628;2022-10-03T14:01:54;22.90;99.90
18888;DHT22;9576;47.792;9.628;2022-10-03T14:08:54;22.90;99.90
18888;DHT22;9576;47.792;9.628;2022-10-03T14:12:07;23.60;99.90
18888;DHT22;9576;47.792;9.628;2022-10-03T14:15:21;24.50;99.90
18888;DHT22;9576;47.792;9.628;2022-10-03T14:18:46;25.10;99.90
18888;DHT22;9576;47.792;9.628;2022-10-03T14:22:03;25.90;99.90
18888;DHT22;9576;47.792;9.628;2022-10-03T14:25:17;26.70;99.90
18888;DHT22;9576;47.792;9.628;2022-10-03T14:28:25;27.10;99.90
18888;DHT22;9576;47.792;9.628;2022-10-03T14:31:33;26.90;99.90
18888;DHT22;9576;47.792;9.628;2022-10-03T14:34:43;26.70;99.90
18888;DHT22;9576;47.792;9.628;2022-10-03T14:37:55;26.30;99.90
18888;DHT22;9576;47.792;9.628;2022-10-03T14:41:02;26.40;99.90
18888;DHT22;9576;47.792;9.628;2022-10-03T14:44:08;26.50;99.90
18888;DHT22;9576;47.792;9.628;2022-10-03T14:47:14;26.00;99.90
18888;DHT22;9576;47.792;9.628;2022-10-03T14:50:20;25.50;99.90
18888;DHT22;9576;47.792;9.628;2022-10-03T14:53:25;25.00;99.90
18888;DHT22;9576;47.792;9.628;2022-10-03T14:56:33;24.40;99.90
18888;DHT22;9576;47.792;9.628;2022-10-03T14:59:41;23.40;99.90
18888;DHT22;9576;47.792;9.628;2022-10-03T15:02:50;22.40;99.90
18888;DHT22;9576;47.792;9.628;2022-10-03T15:06:01;21.60;99.90
18888;DHT22;9576;47.792;9.628;2022-10-03T15:09:08;20.90;99.90
18888;DHT22;9576;47.792;9.628;2022-10-03T15:12:16;20.40;99.90
18888;DHT22;9576;47.792;9.628;2022-10-03T15:15:24;20.10;99.90
18888;DHT22;9576;47.792;9.628;2022-10-03T15:18:27;19.70;99.90
18888;DHT22;9576;47.792;9.628;2022-10-03T15:21:30;19.50;99.90
18888;DHT22;9576;47.792;9.628;2022-10-03T15:24:33;19.10;99.90
18888;DHT22;9576;47.792;9.628;2022-10-03T15:27:39;18.90;99.90
18888;DHT22;9576;47.792;9.628;2022-10-03T15:30:43;18.70;99.90
18888;DHT22;9576;47.792;9.628;2022-10-03T15:33:50;18.40;99.90
18888;DHT22;9576;47.792;9.628;2022-10-03T15:36:55;18.20;99.90
18888;DHT22;9576;47.792;9.628;2022-10-03T15:40:05;18.10;99.90
18888;DHT22;9576;47.792;9.628;2022-10-03T15:43:29;18.10;99.90
18888;DHT22;9576;47.792;9.628;2022-10-03T15:46:35;18.00;99.90
18888;DHT22;9576;47.792;9.628;2022-10-03T15:49:47;17.90;99.90
18888;DHT22;9576;47.792;9.628;2022-10-03T15:52:51;18.00;99.90
18888;DHT22;9576;47.792;9.628;2022-10-03T15:55:58;18.10;99.90
18888;DHT22;9576;47.792;9.628;2022-10-03T15:59:05;18.00;99.90
18888;DHT22;9576;47.792;9.628;2022-10-03T16:02:14;17.80;99.90
18888;DHT22;9576;47.792;9.628;2022-10-03T16:05:21;17.80;99.90
18888;DHT22;9576;47.792;9.628;2022-10-03T16:08:27;17.70;99.90
18888;DHT22;9576;47.792;9.628;2022-10-03T16:11:36;17.60;99.90
18888;DHT22;9576;47.792;9.628;2022-10-03T16:14:43;17.40;99.90
18888;DHT22;9576;47.792;9.628;2022-10-03T16:17:51;17.20;99.90
18888;DHT22;9576;47.792;9.628;2022-10-03T16:20:56;17.00;99.90
18888;DHT22;9576;47.792;9.628;2022-10-03T16:23:58;16.70;99.90
18888;DHT22;9576;47.792;9.628;2022-10-03T16:27:09;16.50;99.90
18888;DHT22;9576;47.792;9.628;2022-10-03T16:30:20;16.20;99.90
18888;DHT22;9576;47.792;9.628;2022-10-03T16:33:25;16.00;99.90
18888;DHT22;9576;47.792;9.628;2022-10-03T16:36:31;15.80;99.90
18888;DHT22;9576;47.792;9.628;2022-10-03T16:39:42;15.60;99.90
18888;DHT22;9576;47.792;9.628;2022-10-03T16:42:46;15.40;99.90
18888;DHT22;9576;47.792;9.628;2022-10-03T16:45:53;15.30;99.90
18888;DHT22;9576;47.792;9.628;2022-10-03T16:48:57;15.20;99.90
18888;DHT22;9576;47.792;9.628;2022-10-03T16:52:19;15.00;99.90
18888;DHT22;9576;47.792;9.628;2022-10-03T16:55:25;14.80;99.90
18888;DHT22;9576;47.792;9.628;2022-10-03T16:58:30;14.60;99.90
18888;DHT22;9576;47.792;9.628;2022-10-03T17:01:39;14.40;99.90
18888;DHT22;9576;47.792;9.628;2022-10-03T17:04:46;14.30;99.90
18888;DHT22;9576;47.792;9.628;2022-10-03T17:07:50;14.10;99.90
18888;DHT22;9576;47.792;9.628;2022-10-03T17:10:56;13.90;99.90
18888;DHT22;9576;47.792;9.628;2022-10-03T17:14:02;13.70;99.90
18888;DHT22;9576;47.792;9.628;2022-10-03T17:17:18;13.60;99.90
18888;DHT22;9576;47.792;9.628;2022-10-03T17:20:34;13.40;99.90
18888;DHT22;9576;47.792;9.628;2022-10-03T17:23:39;13.30;99.90
18888;DHT22;9576;47.792;9.628;2022-10-03T17:26:45;13.10;99.90
18888;DHT22;9576;47.792;9.628;2022-10-03T17:29:50;13.00;99.90
18888;DHT22;9576;47.792;9.628;2022-10-03T17:32:59;12.90;99.90
18888;DHT22;9576;47.792;9.628;2022-10-03T17:36:26;12.80;99.90
18888;DHT22;9576;47.792;9.628;2022-10-03T17:39:52;12.70;99.90
18888;DHT22;9576;47.792;9.628;2022-10-03T17:42:56;12.60;99.90
18888;DHT22;9576;47.792;9.628;2022-10-03T17:46:03;12.50;99.90
18888;DHT22;9576;47.792;9.628;2022-10-03T17:49:19;12.40;99.90
18888;DHT22;9576;47.792;9.628;2022-10-03T17:52:22;12.40;99.90
18888;DHT22;9576;47.792;9.628;2022-10-03T17:55:28;12.30;99.90
18888;DHT22;9576;47.792;9.628;2022-10-03T17:58:31;12.20;99.90
18888;DHT22;9576;47.792;9.628;2022-10-03T18:01:37;12.20;99.90
18888;DHT22;9576;47.792;9.628;2022-10-03T18:04:43;12.10;99.90
18888;DHT22;9576;47.792;9.628;2022-10-03T18:07:48;12.10;99.90
18888;DHT22;9576;47.792;9.628;2022-10-03T18:10:53;12.10;99.90
18888;DHT22;9576;47.792;9.628;2022-10-03T18:14:04;12.00;99.90
18888;DHT22;9576;47.792;9.628;2022-10-03T18:17:13;11.90;99.90
18888;DHT22;9576;47.792;9.628;2022-10-03T18:20:35;11.90;99.90
18888;DHT22;9576;47.792;9.628;2022-10-03T18:23:49;11.80;99.90
18888;DHT22;9576;47.792;9.628;2022-10-03T18:27:01;11.70;99.90
18888;DHT22;9576;47.792;9.628;2022-10-03T18:30:14;11.60;99.90
18888;DHT22;9576;47.792;9.628;2022-10-03T18:33:21;11.40;99.90
18888;DHT22;9576;47.792;9.628;2022-10-03T18:36:29;11.30;99.90
18888;DHT22;9576;47.792;9.628;2022-10-03T18:39:34;11.30;99.90
18888;DHT22;9576;47.792;9.628;2022-10-03T18:42:38;11.30;99.90
18888;DHT22;9576;47.792;9.628;2022-10-03T18:45:42;11.30;99.90
18888;DHT22;9576;47.792;9.628;2022-10-03T18:48:54;11.20;99.90
18888;DHT22;9576;47.792;9.628;2022-10-03T18:52:05;11.20;99.90
18888;DHT22;9576;47.792;9.628;2022-10-03T18:55:16;11.00;99.90
18888;DHT22;9576;47.792;9.628;2022-10-03T18:58:21;11.00;99.90
18888;DHT22;9576;47.792;9.628;2022-10-03T19:01:30;11.00;99.90
18888;DHT22;9576;47.792;9.628;2022-10-03T19:04:39;10.90;99.90
18888;DHT22;9576;47.792;9.628;2022-10-03T19:07:48;10.90;99.90
18888;DHT22;9576;47.792;9.628;2022-10-03T19:10:52;10.90;99.90
18888;DHT22;9576;47.792;9.628;2022-10-03T19:13:59;10.80;99.90
18888;DHT22;9576;47.792;9.628;2022-10-03T19:20:32;10.80;99.90
18888;DHT22;9576;47.792;9.628;2022-10-03T19:23:41;10.80;99.90
18888;DHT22;9576;47.792;9.628;2022-10-03T19:26:45;10.80;99.90
18888;DHT22;9576;47.792;9.628;2022-10-03T19:29:49;10.80;99.90
18888;DHT22;9576;47.792;9.628;2022-10-03T19:32:55;10.70;99.90
18888;DHT22;9576;47.792;9.628;2022-10-03T19:36:01;10.70;99.90
18888;DHT22;9576;47.792;9.628;2022-10-03T19:39:06;10.70;99.90
18888;DHT22;9576;47.792;9.628;2022-10-03T19:42:23;10.60;99.90
18888;DHT22;9576;47.792;9.628;2022-10-03T19:45:27;10.50;99.90
18888;DHT22;9576;47.792;9.628;2022-10-03T19:48:31;10.60;99.90
18888;DHT22;9576;47.792;9.628;2022-10-03T19:51:34;10.50;99.90
18888;DHT22;9576;47.792;9.628;2022-10-03T19:54:47;10.50;99.90
18888;DHT22;9576;47.792;9.628;2022-10-03T19:57:52;10.50;99.90
18888;DHT22;9576;47.792;9.628;2022-10-03T20:00:56;10.50;99.90
18888;DHT22;9576;47.792;9.628;2022-10-03T20:03:59;10.50;99.90
18888;DHT22;9576;47.792;9.628;2022-10-03T20:07:06;10.50;99.90
18888;DHT22;9576;47.792;9.628;2022-10-03T20:10:34;10.50;99.90
18888;DHT22;9576;47.792;9.628;2022-10-03T20:13:41;10.50;99.90
18888;DHT22;9576;47.792;9.628;2022-10-03T20:16:46;10.40;99.90
18888;DHT22;9576;47.792;9.628;2022-10-03T20:19:51;10.40;99.90
18888;DHT22;9576;47.792;9.628;2022-10-03T20:23:02;10.30;99.90
18888;DHT22;9576;47.792;9.628;2022-10-03T20:26:11;10.30;99.90
18888;DHT22;9576;47.792;9.628;2022-10-03T20:29:23;10.30;99.90
18888;DHT22;9576;47.792;9.628;2022-10-03T20:32:27;10.20;99.90
18888;DHT22;9576;47.792;9.628;2022-10-03T20:35:35;10.20;99.90
18888;DHT22;9576;47.792;9.628;2022-10-03T20:39:01;10.20;99.90
18888;DHT22;9576;47.792;9.628;2022-10-03T20:42:11;10.10;99.90
18888;DHT22;9576;47.792;9.628;2022-10-03T20:45:18;10.10;99.90
18888;DHT22;9576;47.792;9.628;2022-10-03T20:48:23;10.00;99.90
18888;DHT22;9576;47.792;9.628;2022-10-03T20:51:38;10.00;99.90
18888;DHT22;9576;47.792;9.628;2022-10-03T20:54:48;9.80;99.90
18888;DHT22;9576;47.792;9.628;2022-10-03T20:57:58;9.70;99.90
18888;DHT22;9576;47.792;9.628;2022-10-03T21:01:07;9.70;99.90
18888;DHT22;9576;47.792;9.628;2022-10-03T21:04:13;9.70;99.90
18888;DHT22;9576;47.792;9.628;2022-10-03T21:07:24;9.70;99.90
18888;DHT22;9576;47.792;9.628;2022-10-03T21:10:28;9.60;99.90
18888;DHT22;9576;47.792;9.628;2022-10-03T21:13:37;9.60;99.90
18888;DHT22;9576;47.792;9.628;2022-10-03T21:16:44;9.60;99.90
18888;DHT22;9576;47.792;9.628;2022-10-03T21:19:50;9.50;99.90
18888;DHT22;9576;47.792;9.628;2022-10-03T21:22:56;9.50;99.90
18888;DHT22;9576;47.792;9.628;2022-10-03T21:26:01;9.40;99.90
18888;DHT22;9576;47.792;9.628;2022-10-03T21:29:16;9.40;99.90
18888;DHT22;9576;47.792;9.628;2022-10-03T21:32:28;9.30;99.90
18888;DHT22;9576;47.792;9.628;2022-10-03T21:35:35;9.20;99.90
18888;DHT22;9576;47.792;9.628;2022-10-03T21:38:40;9.20;99.90
18888;DHT22;9576;47.792;9.628;2022-10-03T21:41:56;9.20;99.90
18888;DHT22;9576;47.792;9.628;2022-10-03T21:45:16;9.20;99.90
18888;DHT22;9576;47.792;9.628;2022-10-03T21:48:28;9.10;99.90
18888;DHT22;9576;47.792;9.628;2022-10-03T21:51:39;9.20;99.90
18888;DHT22;9576;47.792;9.628;2022-10-03T21:54:52;9.20;99.90
18888;DHT22;9576;47.792;9.628;2022-10-03T21:58:05;9.10;99.90
18888;DHT22;9576;47.792;9.628;2022-10-03T22:01:17;9.10;99.90
18888;DHT22;9576;47.792;9.628;2022-10-03T22:04:30;9.00;99.90
18888;DHT22;9576;47.792;9.628;2022-10-03T22:07:37;9.00;99.90
18888;DHT22;9576;47.792;9.628;2022-10-03T22:10:53;9.00;99.90
18888;DHT22;9576;47.792;9.628;2022-10-03T22:14:08;9.00;99.90
18888;DHT22;9576;47.792;9.628;2022-10-03T22:17:18;8.90;99.90
18888;DHT22;9576;47.792;9.628;2022-10-03T22:20:25;8.90;99.90
18888;DHT22;9576;47.792;9.628;2022-10-03T22:23:37;8.90;99.90
18888;DHT22;9576;47.792;9.628;2022-10-03T22:26:47;8.80;99.90
18888;DHT22;9576;47.792;9.628;2022-10-03T22:29:59;8.80;99.90
18888;DHT22;9576;47.792;9.628;2022-10-03T22:33:12;8.80;99.90
18888;DHT22;9576;47.792;9.628;2022-10-03T22:36:16;8.80;99.90
18888;DHT22;9576;47.792;9.628;2022-10-03T22:39:19;8.70;99.90
18888;DHT22;9576;47.792;9.628;2022-10-03T22:42:21;8.70;99.90
18888;DHT22;9576;47.792;9.628;2022-10-03T22:45:25;8.70;99.90
18888;DHT22;9576;47.792;9.628;2022-10-03T22:48:30;8.70;99.90
18888;DHT22;9576;47.792;9.628;2022-10-03T22:51:34;8.70;99.90
18888;DHT22;9576;47.792;9.628;2022-10-03T22:54:38;8.60;99.90
18888;DHT22;9576;47.792;9.628;2022-10-03T22:57:42;8.60;99.90
18888;DHT22;9576;47.792;9.628;2022-10-03T23:00:49;8.50;99.90
18888;DHT22;9576;47.792;9.628;2022-10-03T23:03:54;8.50;99.90
18888;DHT22;9576;47.792;9.628;2022-10-03T23:07:28;8.50;99.90
18888;DHT22;9576;47.792;9.628;2022-10-03T23:10:41;8.50;99.90
18888;DHT22;9576;47.792;9.628;2022-10-03T23:13:48;8.40;99.90
18888;DHT22;9576;47.792;9.628;2022-10-03T23:16:51;8.40;99.90
18888;DHT22;9576;47.792;9.628;2022-10-03T23:20:03;8.40;99.90
18888;DHT22;9576;47.792;9.628;2022-10-03T23:23:13;8.40;99.90
18888;DHT22;9576;47.792;9.628;2022-10-03T23:26:40;8.40;99.90
18888;DHT22;9576;47.792;9.628;2022-10-03T23:29:46;8.40;99.90
18888;DHT22;9576;47.792;9.628;2022-10-03T23:33:14;8.40;99.90